createdAt,value
2022-08-03T00:00:44.432Z,3.50
2022-08-03T00:03:30.908Z,2.90
2022-08-03T00:06:04.236Z,3.90
2022-08-03T00:08:37.661Z,3.60
2022-08-03T00:11:08.855Z,3.70
2022-08-03T00:13:37.068Z,3.60
2022-08-03T00:16:06.299Z,3.63
2022-08-03T00:18:35.261Z,3.03
2022-08-03T00:21:04.431Z,3.27
2022-08-03T00:23:51.293Z,3.33
2022-08-03T00:26:22.005Z,3.73
2022-08-03T00:28:51.684Z,4.10
2022-08-03T00:31:30.319Z,3.60
2022-08-03T00:34:09.527Z,3.20
2022-08-03T00:36:38.559Z,3.60
2022-08-03T00:39:08.782Z,3.50
2022-08-03T00:41:37.805Z,2.93
2022-08-03T00:44:06.539Z,3.77
2022-08-03T00:46:35.017Z,3.60
2022-08-03T00:49:04.073Z,3.50
2022-08-03T00:51:33.599Z,3.60
2022-08-03T00:54:02.468Z,3.80
2022-08-03T00:56:35.733Z,3.67
2022-08-03T00:59:05.313Z,3.67
2022-08-03T01:01:34.138Z,3.90
2022-08-03T01:04:02.673Z,3.93
2022-08-03T01:06:37.527Z,3.83
2022-08-03T01:09:17.572Z,3.00
2022-08-03T01:12:00.126Z,4.25
2022-08-03T01:14:39.680Z,3.67
2022-08-03T01:17:14.538Z,3.95
2022-08-03T01:19:59.773Z,3.23
2022-08-03T01:23:10.250Z,3.53
2022-08-03T01:25:56.987Z,3.70
2022-08-03T01:28:51.080Z,3.27
2022-08-03T01:31:27.782Z,3.25
2022-08-03T01:37:00.733Z,4.28
2022-08-03T01:39:31.906Z,3.72
2022-08-03T01:42:06.269Z,4.35
2022-08-03T01:44:38.301Z,3.30
2022-08-03T01:47:08.915Z,3.60
2022-08-03T01:49:44.623Z,3.17
2022-08-03T01:52:18.715Z,3.67
2022-08-03T01:54:51.231Z,3.53
2022-08-03T01:57:21.227Z,3.23
2022-08-03T01:59:52.087Z,4.00
2022-08-03T02:02:33.522Z,3.50
2022-08-03T02:05:10.923Z,3.75
2022-08-03T02:07:43.222Z,3.77
2022-08-03T02:10:14.292Z,3.58
2022-08-03T02:12:46.027Z,3.67
2022-08-03T02:15:17.359Z,3.80
2022-08-03T02:17:48.444Z,3.70
2022-08-03T02:20:17.430Z,4.00
2022-08-03T02:22:48.191Z,3.70
2022-08-03T02:25:17.794Z,3.67
2022-08-03T02:27:52.821Z,3.80
2022-08-03T02:30:22.800Z,3.60
2022-08-03T02:32:56.616Z,4.43
2022-08-03T02:35:27.567Z,4.15
2022-08-03T02:38:00.977Z,3.55
2022-08-03T02:40:30.673Z,3.65
2022-08-03T02:43:01.882Z,3.53
2022-08-03T02:45:31.259Z,3.80
2022-08-03T02:48:03.958Z,4.35
2022-08-03T02:50:35.258Z,3.80
2022-08-03T02:53:09.187Z,3.97
2022-08-03T02:55:45.605Z,4.53
2022-08-03T02:58:15.439Z,3.88
2022-08-03T03:00:46.421Z,3.63
2022-08-03T03:03:16.194Z,4.22
2022-08-03T03:05:53.088Z,4.00
2022-08-03T03:08:29.270Z,4.22
2022-08-03T03:11:00.087Z,3.70
2022-08-03T03:13:30.155Z,4.18
2022-08-03T03:16:02.010Z,4.07
2022-08-03T03:18:35.020Z,4.22
2022-08-03T03:21:05.388Z,3.60
2022-08-03T03:23:37.886Z,3.67
2022-08-03T03:26:07.490Z,3.72
2022-08-03T03:28:37.689Z,4.00
2022-08-03T03:31:07.312Z,4.93
2022-08-03T03:33:35.936Z,4.00
2022-08-03T03:36:04.936Z,4.22
2022-08-03T03:38:35.749Z,4.43
2022-08-03T03:41:05.737Z,3.92
2022-08-03T03:43:35.697Z,3.60
2022-08-03T03:46:04.490Z,4.13
2022-08-03T03:48:32.814Z,4.00
2022-08-03T03:51:02.500Z,4.50
2022-08-03T03:53:30.865Z,3.55
2022-08-03T03:56:02.473Z,3.85
2022-08-03T03:58:33.209Z,4.15
2022-08-03T04:01:02.538Z,3.88
2022-08-03T04:03:31.047Z,4.10
2022-08-03T04:06:17.012Z,4.38
2022-08-03T04:09:15.153Z,4.78
2022-08-03T04:11:48.886Z,4.35
2022-08-03T04:14:21.141Z,3.88
2022-08-03T04:16:53.121Z,3.20
2022-08-03T04:19:33.642Z,4.10
2022-08-03T04:22:06.596Z,3.47
2022-08-03T04:24:40.804Z,3.55
2022-08-03T04:27:13.351Z,3.88
2022-08-03T04:29:48.522Z,3.65
2022-08-03T04:32:18.331Z,3.40
2022-08-03T04:34:47.746Z,4.35
2022-08-03T04:37:25.376Z,3.67
2022-08-03T04:39:57.910Z,3.67
2022-08-03T04:42:28.871Z,4.25
2022-08-03T04:45:19.620Z,3.40
2022-08-03T04:47:49.023Z,4.05
2022-08-03T04:50:21.547Z,3.20
2022-08-03T04:53:07.191Z,3.75
2022-08-03T04:55:36.913Z,3.53
2022-08-03T04:58:07.284Z,3.70
2022-08-03T05:00:35.776Z,4.07
2022-08-03T05:03:04.117Z,4.20
2022-08-03T05:05:52.033Z,3.30
2022-08-03T05:08:27.781Z,4.13
2022-08-03T05:10:59.322Z,3.55
2022-08-03T05:13:29.570Z,4.13
2022-08-03T05:15:58.078Z,3.90
2022-08-03T05:18:26.764Z,4.05
2022-08-03T05:20:55.087Z,4.28
2022-08-03T05:23:23.292Z,4.03
2022-08-03T05:25:51.838Z,3.85
2022-08-03T05:28:20.273Z,4.55
2022-08-03T05:30:50.250Z,4.70
2022-08-03T05:33:18.597Z,4.18
2022-08-03T05:35:55.881Z,4.32
2022-08-03T05:38:34.379Z,4.45
2022-08-03T05:41:21.522Z,4.20
2022-08-03T05:43:54.079Z,4.50
2022-08-03T05:46:24.292Z,4.10
2022-08-03T05:48:53.361Z,3.90
2022-08-03T05:51:21.995Z,4.20
2022-08-03T05:53:50.594Z,4.20
2022-08-03T05:56:19.175Z,4.00
2022-08-03T05:58:48.420Z,4.43
2022-08-03T06:01:17.878Z,4.13
2022-08-03T06:03:47.871Z,4.37
2022-08-03T06:06:16.691Z,3.30
2022-08-03T06:08:46.954Z,3.53
2022-08-03T06:11:16.646Z,3.70
2022-08-03T06:13:45.998Z,3.80
2022-08-03T06:16:17.478Z,3.00
2022-08-03T06:18:47.544Z,3.47
2022-08-03T06:21:16.420Z,3.20
2022-08-03T06:23:54.295Z,3.40
2022-08-03T06:26:25.648Z,3.03
2022-08-03T06:28:55.130Z,3.30
2022-08-03T06:31:32.215Z,2.87
2022-08-03T06:34:32.872Z,3.30
2022-08-03T06:36:58.638Z,3.43
2022-08-03T06:39:31.020Z,3.07
2022-08-03T06:41:59.351Z,3.10
2022-08-03T06:44:27.973Z,2.90
2022-08-03T06:46:56.428Z,3.47
2022-08-03T06:49:26.363Z,3.10
2022-08-03T06:52:37.461Z,3.00
2022-08-03T06:54:43.480Z,3.07
2022-08-03T06:57:12.054Z,2.80
2022-08-03T07:00:11.053Z,2.70
2022-08-03T07:02:29.836Z,2.93
2022-08-03T07:04:59.803Z,2.50
2022-08-03T07:07:28.340Z,2.00
2022-08-03T07:09:58.255Z,2.80
2022-08-03T07:12:28.306Z,2.70
2022-08-03T07:15:00.642Z,3.37
2022-08-03T07:17:30.332Z,2.90
2022-08-03T07:20:01.428Z,3.90
2022-08-03T07:22:29.900Z,3.67
2022-08-03T07:24:58.683Z,3.67
2022-08-03T07:27:28.744Z,3.30
2022-08-03T07:29:57.967Z,2.97
2022-08-03T07:32:27.338Z,3.27
2022-08-03T07:35:00.521Z,2.97
2022-08-03T07:37:31.701Z,2.80
2022-08-03T07:40:00.427Z,3.00
2022-08-03T07:42:29.443Z,3.00
2022-08-03T07:44:59.016Z,2.43
2022-08-03T07:47:35.498Z,2.03
2022-08-03T07:50:08.775Z,3.00
2022-08-03T07:52:51.780Z,2.37
2022-08-03T07:55:21.169Z,2.30
2022-08-03T07:58:03.031Z,2.13
2022-08-03T08:00:31.652Z,2.20
2022-08-03T08:03:00.117Z,2.00
2022-08-03T08:05:32.401Z,1.90
2022-08-03T08:08:02.771Z,2.00
2022-08-03T08:10:31.386Z,1.93
2022-08-03T08:13:00.430Z,2.50
2022-08-03T08:15:29.498Z,2.20
2022-08-03T08:17:59.232Z,2.13
2022-08-03T08:20:31.494Z,2.37
2022-08-03T08:23:03.553Z,1.90
2022-08-03T08:25:42.427Z,1.50
2022-08-03T08:28:30.484Z,1.80
2022-08-03T08:30:59.245Z,2.30
2022-08-03T08:33:37.381Z,2.57
2022-08-03T08:36:15.225Z,2.10
2022-08-03T08:38:45.701Z,2.10
2022-08-03T08:41:16.083Z,1.93
2022-08-03T08:43:45.097Z,2.00
2022-08-03T08:46:23.770Z,1.80
2022-08-03T08:48:53.870Z,2.27
2022-08-03T08:51:23.365Z,1.80
2022-08-03T08:54:14.267Z,2.33
2022-08-03T08:56:43.396Z,2.10
2022-08-03T08:59:12.052Z,2.27
2022-08-03T09:01:40.469Z,1.90
2022-08-03T09:04:09.596Z,1.73
2022-08-03T09:06:38.044Z,2.37
2022-08-03T09:09:08.457Z,2.30
2022-08-03T09:11:52.551Z,2.00
2022-08-03T09:14:39.211Z,1.80
2022-08-03T09:17:17.040Z,2.07
2022-08-03T09:20:07.629Z,2.43
2022-08-03T09:22:36.365Z,1.83
2022-08-03T09:25:24.634Z,1.50
2022-08-03T09:27:55.055Z,1.43
2022-08-03T09:30:34.123Z,1.70
2022-08-03T09:33:03.949Z,1.90
2022-08-03T09:35:53.009Z,1.83
2022-08-03T09:38:24.315Z,1.80
2022-08-03T09:40:57.321Z,1.83
2022-08-03T09:43:29.239Z,1.60
2022-08-03T09:46:04.609Z,1.80
2022-08-03T09:48:35.134Z,2.07
2022-08-03T09:51:13.397Z,2.30
2022-08-03T09:53:59.725Z,1.70
2022-08-03T09:56:40.794Z,1.60
2022-08-03T09:59:12.782Z,2.03
2022-08-03T10:01:43.528Z,1.90
2022-08-03T10:04:17.109Z,1.80
2022-08-03T10:06:46.498Z,2.10
2022-08-03T10:09:18.411Z,2.30
2022-08-03T10:11:48.809Z,2.00
2022-08-03T10:14:20.027Z,2.40
2022-08-03T10:16:49.709Z,2.33
2022-08-03T10:19:18.277Z,2.23
2022-08-03T10:21:51.505Z,2.37
2022-08-03T10:24:27.986Z,2.17
2022-08-03T10:27:04.532Z,2.33
2022-08-03T10:29:39.339Z,2.40
2022-08-03T10:32:17.251Z,2.50
2022-08-03T10:34:48.038Z,2.40
2022-08-03T10:37:18.893Z,2.50
2022-08-03T10:39:57.061Z,2.37
2022-08-03T10:42:27.519Z,2.77
2022-08-03T10:45:05.021Z,2.23
2022-08-03T10:47:35.019Z,2.50
2022-08-03T10:50:05.486Z,2.30
2022-08-03T10:52:38.152Z,2.50
2022-08-03T10:55:48.434Z,2.60
2022-08-03T10:58:30.341Z,2.20
2022-08-03T11:01:00.823Z,2.63
2022-08-03T11:03:29.137Z,2.10
2022-08-03T11:06:19.098Z,2.40
2022-08-03T11:08:48.621Z,2.50
2022-08-03T11:11:28.778Z,2.43
2022-08-03T11:14:04.722Z,2.40
2022-08-03T11:16:36.720Z,2.60
2022-08-03T11:19:07.315Z,2.07
2022-08-03T11:21:59.739Z,2.43
2022-08-03T11:24:59.765Z,2.00
2022-08-03T11:27:33.403Z,2.10
2022-08-03T11:30:04.978Z,2.07
2022-08-03T11:33:02.729Z,2.40
2022-08-03T11:35:33.706Z,2.70
2022-08-03T11:38:10.474Z,2.83
2022-08-03T11:40:45.093Z,2.10
2022-08-03T11:43:46.714Z,2.47
2022-08-03T11:46:29.596Z,2.40
2022-08-03T11:49:09.737Z,2.27
2022-08-03T11:51:55.596Z,2.60
2022-08-03T11:54:25.185Z,2.00
2022-08-03T11:56:53.902Z,2.10
2022-08-03T11:59:33.732Z,2.60
2022-08-03T12:02:08.167Z,2.43
2022-08-03T12:08:03.174Z,2.40
2022-08-03T12:10:21.289Z,2.13
2022-08-03T12:12:56.679Z,2.30
2022-08-03T12:15:29.664Z,2.33
2022-08-03T12:17:58.615Z,2.50
2022-08-03T12:20:34.583Z,2.03
2022-08-03T12:23:06.466Z,2.23
2022-08-03T12:25:39.464Z,2.03
2022-08-03T12:28:31.800Z,2.40
2022-08-03T12:31:07.565Z,2.50
2022-08-03T12:33:56.960Z,2.37
2022-08-03T12:36:25.719Z,1.90
2022-08-03T12:38:58.257Z,1.83
2022-08-03T12:41:32.164Z,2.10
2022-08-03T12:44:01.020Z,1.93
2022-08-03T12:46:34.846Z,2.10
2022-08-03T12:49:09.125Z,1.60
2022-08-03T12:51:39.356Z,2.17
2022-08-03T12:54:09.712Z,2.03
2022-08-03T12:56:58.836Z,2.10
2022-08-03T12:59:32.324Z,2.27
2022-08-03T13:02:09.489Z,2.30
2022-08-03T13:04:38.838Z,1.90
2022-08-03T13:07:14.291Z,2.00
2022-08-03T13:09:46.707Z,2.50
2022-08-03T13:12:17.049Z,2.37
2022-08-03T13:14:47.145Z,2.27
2022-08-03T13:17:16.955Z,2.00
2022-08-03T13:19:46.195Z,1.77
2022-08-03T13:22:15.891Z,2.10
2022-08-03T13:25:08.573Z,2.00
2022-08-03T13:28:03.487Z,2.17
2022-08-03T13:30:30.345Z,2.53
2022-08-03T13:33:00.768Z,2.20
2022-08-03T13:35:29.504Z,2.10
2022-08-03T13:38:00.616Z,2.10
2022-08-03T13:40:41.366Z,2.40
2022-08-03T13:43:10.594Z,2.70
2022-08-03T13:45:39.126Z,2.27
2022-08-03T13:48:08.094Z,2.30
2022-08-03T13:50:39.842Z,1.83
2022-08-03T13:53:11.486Z,2.20
2022-08-03T13:55:41.349Z,2.87
2022-08-03T13:58:12.498Z,2.63
2022-08-03T14:00:41.130Z,2.83
2022-08-03T14:03:14.120Z,1.90
2022-08-03T14:05:43.771Z,1.90
2022-08-03T14:08:13.625Z,2.17
2022-08-03T14:10:46.345Z,1.80
2022-08-03T14:13:17.712Z,2.30
2022-08-03T14:15:50.206Z,2.13
2022-08-03T14:18:28.270Z,1.93
2022-08-03T14:21:03.509Z,2.10
2022-08-03T14:23:34.600Z,1.90
2022-08-03T14:26:05.097Z,2.03
2022-08-03T14:28:33.725Z,1.80
2022-08-03T14:31:02.587Z,1.90
2022-08-03T14:33:31.318Z,2.43
2022-08-03T14:35:59.907Z,2.47
2022-08-03T14:38:28.544Z,2.50
2022-08-03T14:40:57.050Z,2.27
2022-08-03T14:43:27.013Z,2.20
2022-08-03T14:46:02.731Z,2.00
2022-08-03T14:50:29.015Z,2.53
2022-08-03T14:51:20.073Z,1.87
2022-08-03T14:53:48.635Z,2.20
2022-08-03T14:56:17.418Z,2.43
2022-08-03T14:58:47.309Z,2.17
2022-08-03T15:02:04.607Z,2.20
2022-08-03T15:04:04.533Z,2.00
2022-08-03T15:06:32.895Z,2.10
2022-08-03T15:09:22.472Z,2.47
2022-08-03T15:11:49.856Z,2.10
2022-08-03T15:14:22.324Z,2.40
2022-08-03T15:16:56.968Z,2.13
2022-08-03T15:20:01.244Z,2.87
2022-08-03T15:22:15.720Z,2.40
2022-08-03T15:24:49.096Z,3.00
2022-08-03T15:27:17.820Z,2.13
2022-08-03T15:30:08.850Z,2.47
2022-08-03T15:32:36.494Z,2.40
2022-08-03T15:35:05.823Z,2.40
2022-08-03T15:37:34.260Z,2.40
2022-08-03T15:40:02.772Z,3.10
2022-08-03T15:42:32.138Z,2.50
2022-08-03T15:45:01.999Z,2.60
2022-08-03T15:47:30.469Z,3.20
2022-08-03T15:49:58.850Z,2.40
2022-08-03T15:52:27.885Z,2.53
2022-08-03T15:54:56.322Z,2.20
2022-08-03T15:57:25.084Z,2.40
2022-08-03T15:59:53.518Z,3.30
2022-08-03T16:02:23.271Z,2.37
2022-08-03T16:04:52.315Z,2.40
2022-08-03T16:07:40.416Z,2.70
2022-08-03T16:10:28.793Z,2.70
2022-08-03T16:12:58.937Z,2.30
2022-08-03T16:15:27.545Z,2.67
2022-08-03T16:17:57.354Z,2.60
2022-08-03T16:20:31.727Z,2.20
2022-08-03T16:23:07.763Z,2.20
2022-08-03T16:25:40.414Z,2.33
2022-08-03T16:28:13.814Z,2.60
2022-08-03T16:30:47.647Z,2.50
2022-08-03T16:33:18.034Z,2.63
2022-08-03T16:35:47.166Z,2.53
2022-08-03T16:38:19.191Z,2.30
2022-08-03T16:40:51.823Z,2.10
2022-08-03T16:43:22.117Z,1.97
2022-08-03T16:45:50.771Z,2.13
2022-08-03T16:48:20.764Z,2.47
2022-08-03T16:50:49.313Z,2.50
2022-08-03T16:53:33.331Z,2.40
2022-08-03T16:56:10.158Z,2.30
2022-08-03T16:58:42.583Z,2.60
2022-08-03T17:01:21.878Z,2.87
2022-08-03T17:04:01.766Z,2.30
2022-08-03T17:06:38.236Z,2.50
2022-08-03T17:09:17.997Z,2.73
2022-08-03T17:11:49.658Z,2.20
2022-08-03T17:14:22.595Z,2.60
2022-08-03T17:16:54.137Z,2.53
2022-08-03T17:19:26.478Z,2.33
2022-08-03T17:22:04.294Z,2.17
2022-08-03T17:24:35.035Z,1.90
2022-08-03T17:27:09.038Z,2.40
2022-08-03T17:29:45.178Z,2.40
2022-08-03T17:32:18.409Z,2.23
2022-08-03T17:34:51.606Z,2.70
2022-08-03T17:37:49.701Z,2.60
2022-08-03T17:40:17.449Z,2.83
2022-08-03T17:42:50.872Z,2.33
2022-08-03T17:45:21.056Z,2.50
2022-08-03T17:47:57.123Z,2.93
2022-08-03T17:51:01.477Z,2.63
2022-08-03T17:53:33.533Z,2.30
2022-08-03T17:56:44.395Z,1.90
2022-08-03T17:59:08.732Z,2.50
2022-08-03T18:02:16.638Z,2.70
2022-08-03T18:05:00.974Z,2.57
2022-08-03T18:07:40.869Z,2.50
2022-08-03T18:10:11.368Z,2.40
2022-08-03T18:12:51.731Z,2.50
2022-08-03T18:15:28.698Z,2.30
2022-08-03T18:18:02.862Z,2.70
2022-08-03T18:20:45.655Z,2.30
2022-08-03T18:23:24.832Z,2.00
2022-08-03T18:25:58.212Z,2.10
2022-08-03T18:28:29.100Z,1.90
2022-08-03T18:30:58.594Z,2.20
2022-08-03T18:34:19.087Z,2.30
2022-08-03T18:36:29.422Z,2.20
2022-08-03T18:39:01.774Z,2.60
2022-08-03T18:41:34.715Z,2.77
2022-08-03T18:44:08.660Z,2.10
2022-08-03T18:47:07.344Z,2.50
2022-08-03T18:49:54.510Z,2.00
2022-08-03T18:55:21.056Z,1.93
2022-08-03T18:58:17.555Z,2.60
2022-08-03T19:00:54.703Z,2.30
2022-08-03T19:03:43.269Z,2.07
2022-08-03T19:06:19.853Z,2.30
2022-08-03T19:08:55.711Z,2.23
2022-08-03T19:12:12.593Z,2.60
2022-08-03T19:14:29.448Z,2.13
2022-08-03T19:17:06.302Z,2.70
2022-08-03T19:19:44.463Z,2.20
2022-08-03T19:22:15.914Z,2.77
2022-08-03T19:24:47.814Z,2.40
2022-08-03T19:27:20.179Z,2.60
2022-08-03T19:30:03.032Z,2.10
2022-08-03T19:32:35.545Z,2.30
2022-08-03T19:35:10.098Z,2.20
2022-08-03T19:37:45.439Z,2.37
2022-08-03T19:40:13.946Z,2.80
2022-08-03T19:42:48.027Z,2.47
2022-08-03T19:45:22.510Z,3.03
2022-08-03T19:48:15.733Z,2.10
2022-08-03T19:50:46.535Z,2.20
2022-08-03T19:53:16.764Z,2.60
2022-08-03T19:55:49.335Z,2.33
2022-08-03T19:58:28.420Z,2.40
2022-08-03T20:00:59.406Z,2.40
2022-08-03T20:03:51.850Z,2.30
2022-08-03T20:06:23.214Z,1.97
2022-08-03T20:08:57.674Z,2.40
2022-08-03T20:11:28.788Z,2.47
2022-08-03T20:13:59.834Z,2.60
2022-08-03T20:16:33.260Z,3.30
2022-08-03T20:19:13.980Z,2.90
2022-08-03T20:21:46.430Z,2.87
2022-08-03T20:24:24.854Z,2.50
2022-08-03T20:27:02.264Z,2.87
2022-08-03T20:30:04.913Z,3.07
2022-08-03T20:32:29.082Z,2.80
2022-08-03T20:34:58.668Z,2.40
2022-08-03T20:37:31.287Z,2.37
2022-08-03T20:40:03.085Z,2.50
2022-08-03T20:42:36.111Z,2.77
2022-08-03T20:45:14.104Z,2.37
2022-08-03T20:48:04.136Z,2.30
2022-08-03T20:50:33.787Z,2.60
2022-08-03T20:53:04.973Z,3.20
2022-08-03T20:55:47.993Z,2.90
2022-08-03T20:58:26.731Z,3.03
2022-08-03T21:00:57.571Z,2.93
2022-08-03T21:03:25.908Z,2.40
2022-08-03T21:06:14.948Z,3.03
2022-08-03T21:08:48.415Z,2.87
2022-08-03T21:11:18.775Z,2.90
2022-08-03T21:13:53.067Z,3.00
2022-08-03T21:16:27.097Z,2.40
2022-08-03T21:18:59.144Z,2.77
2022-08-03T21:21:31.829Z,3.13
2022-08-03T21:24:03.074Z,3.43
2022-08-03T21:26:34.942Z,2.43
2022-08-03T21:29:03.195Z,2.40
2022-08-03T21:31:33.074Z,3.60
2022-08-03T21:34:03.565Z,2.50
2022-08-03T21:36:33.476Z,3.23
2022-08-03T21:39:02.885Z,2.70
2022-08-03T21:41:33.991Z,2.90
2022-08-03T21:44:03.013Z,2.90
2022-08-03T21:46:36.416Z,2.80
2022-08-03T21:50:04.479Z,2.97
2022-08-03T21:51:59.092Z,2.60
2022-08-03T21:54:34.922Z,2.30
2022-08-03T21:57:05.373Z,2.77
2022-08-03T21:59:38.163Z,3.00
2022-08-03T22:02:12.260Z,2.83
2022-08-03T22:04:55.970Z,2.90
2022-08-03T22:07:26.010Z,2.53
2022-08-03T22:09:55.718Z,2.43
2022-08-03T22:12:25.165Z,2.90
2022-08-03T22:15:00.860Z,2.97
2022-08-03T22:17:53.611Z,2.50
2022-08-03T22:20:23.555Z,2.70
2022-08-03T22:22:56.620Z,2.73
2022-08-03T22:25:28.960Z,2.67
2022-08-03T22:27:58.739Z,2.37
2022-08-03T22:30:27.006Z,2.87
2022-08-03T22:32:57.760Z,2.67
2022-08-03T22:35:27.870Z,2.30
2022-08-03T22:37:58.570Z,2.70
2022-08-03T22:40:28.290Z,2.30
2022-08-03T22:42:57.875Z,2.60
2022-08-03T22:46:07.035Z,2.77
2022-08-03T22:48:17.946Z,2.73
2022-08-03T22:50:47.384Z,2.47
2022-08-03T22:53:20.188Z,3.00
2022-08-03T22:55:51.707Z,2.70
2022-08-03T22:58:20.928Z,2.60
2022-08-03T23:00:54.025Z,2.40
2022-08-03T23:04:00.129Z,2.77
2022-08-03T23:06:20.229Z,2.40
2022-08-03T23:08:48.841Z,2.80
2022-08-03T23:11:19.658Z,2.63
2022-08-03T23:13:53.270Z,2.57
2022-08-03T23:16:28.482Z,2.83
2022-08-03T23:18:59.529Z,2.70
2022-08-03T23:21:59.961Z,3.00
2022-08-03T23:24:29.038Z,2.37
2022-08-03T23:26:59.318Z,2.40
2022-08-03T23:29:29.901Z,2.67
2022-08-03T23:31:59.459Z,3.00
2022-08-03T23:34:55.386Z,2.63
2022-08-03T23:37:26.751Z,3.50
2022-08-03T23:39:58.049Z,3.43
2022-08-03T23:42:27.237Z,2.23
2022-08-03T23:44:59.383Z,3.13
2022-08-03T23:47:46.757Z,3.40
2022-08-03T23:50:17.490Z,3.00
2022-08-03T23:52:56.903Z,2.93
2022-08-03T23:55:41.407Z,3.50
2022-08-03T23:58:20.147Z,2.30
